createdAt,value
2022-10-25T00:01:31.312Z,8.25
2022-10-25T00:03:58.858Z,12.48
2022-10-25T00:06:25.641Z,10.75
2022-10-25T00:08:52.579Z,13.05
2022-10-25T00:11:28.758Z,6.32
2022-10-25T00:13:59.403Z,6.75
2022-10-25T00:16:32.227Z,9.73
2022-10-25T00:18:59.027Z,10.40
2022-10-25T00:21:26.310Z,5.63
2022-10-25T00:23:53.573Z,6.53
2022-10-25T00:26:21.176Z,7.22
2022-10-25T00:28:48.363Z,9.35
2022-10-25T00:31:17.553Z,9.25
2022-10-25T00:33:45.559Z,5.18
2022-10-25T00:36:22.108Z,5.60
2022-10-25T00:38:49.423Z,4.88
2022-10-25T00:41:21.030Z,7.15
2022-10-25T00:43:50.307Z,9.50
2022-10-25T00:46:20.525Z,10.48
2022-10-25T00:49:14.303Z,14.23
2022-10-25T00:51:59.735Z,7.00
2022-10-25T00:54:33.186Z,8.05
2022-10-25T00:57:06.173Z,11.07
2022-10-25T00:59:33.014Z,13.02
2022-10-25T01:02:00.674Z,9.23
2022-10-25T01:04:29.899Z,9.35
2022-10-25T01:06:57.635Z,12.02
2022-10-25T01:09:28.207Z,12.80
2022-10-25T01:11:55.359Z,8.82
2022-10-25T01:14:23.088Z,9.95
2022-10-25T01:17:14.757Z,8.57
2022-10-25T01:19:59.592Z,9.85
2022-10-25T01:22:26.375Z,8.10
2022-10-25T01:25:24.209Z,8.60
2022-10-25T01:27:53.969Z,7.00
2022-10-25T01:30:53.463Z,10.40
2022-10-25T01:33:37.087Z,7.47
2022-10-25T01:36:22.403Z,6.63
2022-10-25T01:39:11.201Z,11.70
2022-10-25T01:42:16.740Z,10.02
2022-10-25T01:44:46.117Z,9.68
2022-10-25T01:47:25.118Z,11.57
2022-10-25T01:50:04.610Z,12.77
2022-10-25T01:52:31.394Z,11.82
2022-10-25T01:54:58.123Z,11.48
2022-10-25T01:57:57.081Z,14.90
2022-10-25T02:00:24.376Z,17.77
2022-10-25T02:03:18.858Z,10.77
2022-10-25T02:05:58.041Z,17.95
2022-10-25T02:08:58.676Z,13.82
2022-10-25T02:11:33.398Z,11.65
2022-10-25T02:14:27.313Z,8.75
2022-10-25T02:17:08.423Z,12.40
2022-10-25T02:19:44.846Z,16.27
2022-10-25T02:22:14.516Z,9.73
2022-10-25T02:24:46.022Z,15.93
2022-10-25T02:27:14.459Z,10.88
2022-10-25T02:29:42.928Z,10.80
2022-10-25T02:32:09.988Z,11.65
2022-10-25T02:34:36.942Z,10.88
2022-10-25T02:37:03.694Z,9.80
2022-10-25T02:39:31.732Z,9.90
2022-10-25T02:42:02.210Z,9.55
2022-10-25T02:44:29.270Z,10.85
2022-10-25T02:46:56.111Z,13.25
2022-10-25T02:49:22.991Z,15.10
2022-10-25T02:54:21.711Z,13.82
2022-10-25T02:56:52.386Z,7.57
2022-10-25T02:59:19.907Z,11.40
2022-10-25T03:01:47.233Z,11.43
2022-10-25T03:04:14.055Z,11.07
2022-10-25T03:06:40.861Z,16.25
2022-10-25T03:09:07.594Z,18.55
2022-10-25T03:11:34.555Z,19.52
2022-10-25T03:14:01.296Z,10.98
2022-10-25T03:16:28.135Z,11.57
2022-10-25T03:18:58.083Z,9.93
2022-10-25T03:21:25.649Z,11.85
2022-10-25T03:23:53.183Z,11.80
2022-10-25T03:26:20.196Z,14.70
2022-10-25T03:28:47.266Z,7.35
2022-10-25T03:31:16.884Z,10.65
2022-10-25T03:33:44.031Z,8.85
2022-10-25T03:36:10.966Z,13.30
2022-10-25T03:38:37.752Z,13.20
2022-10-25T03:41:05.149Z,12.20
2022-10-25T03:43:32.283Z,8.45
2022-10-25T03:45:59.219Z,9.35
2022-10-25T03:48:26.175Z,14.73
2022-10-25T03:50:54.351Z,14.00
2022-10-25T03:53:21.671Z,8.68
2022-10-25T03:55:49.860Z,10.68
2022-10-25T03:58:17.579Z,10.05
2022-10-25T04:00:44.496Z,13.15
2022-10-25T04:03:11.692Z,6.88
2022-10-25T04:05:38.611Z,10.95
2022-10-25T04:08:05.655Z,19.48
2022-10-25T04:10:32.490Z,8.30
2022-10-25T04:12:59.302Z,12.30
2022-10-25T04:15:26.202Z,10.52
2022-10-25T04:17:53.702Z,8.18
2022-10-25T04:20:21.360Z,11.18
2022-10-25T04:22:56.356Z,9.40
2022-10-25T04:25:26.115Z,16.98
2022-10-25T04:27:52.933Z,10.68
2022-10-25T04:30:20.100Z,10.82
2022-10-25T04:32:47.174Z,12.32
2022-10-25T04:35:14.358Z,9.38
2022-10-25T04:37:41.089Z,9.10
2022-10-25T04:40:08.996Z,11.25
2022-10-25T04:42:36.102Z,10.45
2022-10-25T04:45:03.160Z,10.70
2022-10-25T04:47:33.485Z,6.78
2022-10-25T04:50:00.717Z,12.15
2022-10-25T04:52:29.886Z,9.25
2022-10-25T04:54:57.143Z,7.55
2022-10-25T04:57:25.281Z,11.13
2022-10-25T04:59:52.738Z,13.23
2022-10-25T05:02:19.625Z,34.53
2022-10-25T05:04:46.484Z,35.05
2022-10-25T05:07:13.256Z,16.40
2022-10-25T05:09:42.665Z,24.70
2022-10-25T05:12:12.112Z,19.55
2022-10-25T05:14:38.876Z,14.90
2022-10-25T05:17:05.765Z,16.27
2022-10-25T05:19:32.536Z,9.90
2022-10-25T05:21:59.450Z,10.95
2022-10-25T05:24:26.987Z,7.97
2022-10-25T05:26:53.747Z,12.10
2022-10-25T05:29:20.715Z,11.05
2022-10-25T05:31:47.462Z,13.88
2022-10-25T05:34:14.267Z,10.15
2022-10-25T05:36:41.054Z,14.13
2022-10-25T05:39:07.929Z,15.77
2022-10-25T05:41:37.022Z,12.75
2022-10-25T05:44:05.472Z,8.02
2022-10-25T05:46:32.579Z,8.80
2022-10-25T05:49:00.281Z,9.23
2022-10-25T05:51:35.256Z,8.23
2022-10-25T05:54:23.347Z,6.18
2022-10-25T05:56:50.124Z,5.82
2022-10-25T05:59:17.150Z,10.10
2022-10-25T06:01:46.402Z,8.15
2022-10-25T06:04:14.690Z,10.77
2022-10-25T06:06:43.531Z,11.55
2022-10-25T06:09:11.142Z,14.07
2022-10-25T06:11:39.078Z,11.10
2022-10-25T06:14:07.112Z,14.27
2022-10-25T06:16:34.367Z,7.93
2022-10-25T06:19:01.325Z,7.55
2022-10-25T06:21:29.473Z,6.85
2022-10-25T06:23:56.682Z,9.10
2022-10-25T06:26:27.120Z,10.30
2022-10-25T06:28:57.122Z,8.13
2022-10-25T06:31:24.762Z,6.60
2022-10-25T06:33:51.778Z,16.40
2022-10-25T06:36:24.206Z,8.63
2022-10-25T06:38:51.311Z,7.72
2022-10-25T06:41:24.907Z,9.38
2022-10-25T06:43:52.035Z,9.25
2022-10-25T06:46:31.718Z,15.65
2022-10-25T06:48:59.918Z,8.45
2022-10-25T06:51:28.824Z,8.05
2022-10-25T06:53:57.744Z,9.88
2022-10-25T06:56:26.098Z,8.65
2022-10-25T06:58:53.506Z,9.82
2022-10-25T07:01:22.783Z,8.43
2022-10-25T07:03:50.898Z,8.30
2022-10-25T07:06:21.856Z,14.07
2022-10-25T07:09:01.382Z,9.68
2022-10-25T07:11:31.583Z,9.00
2022-10-25T07:14:00.377Z,8.23
2022-10-25T07:16:28.356Z,12.85
2022-10-25T07:19:03.990Z,14.07
2022-10-25T07:21:32.888Z,11.80
2022-10-25T07:23:59.614Z,9.18
2022-10-25T07:26:35.439Z,13.27
2022-10-25T07:29:04.253Z,8.88
2022-10-25T07:31:41.465Z,11.25
2022-10-25T07:34:11.439Z,13.40
2022-10-25T07:36:38.491Z,8.65
2022-10-25T07:39:05.323Z,11.13
2022-10-25T07:41:32.142Z,9.82
2022-10-25T07:43:58.864Z,21.40
2022-10-25T07:46:28.619Z,10.15
2022-10-25T07:48:55.371Z,19.23
2022-10-25T07:51:22.254Z,20.80
2022-10-25T07:53:49.963Z,14.45
2022-10-25T07:56:23.363Z,14.20
2022-10-25T07:58:54.122Z,19.05
2022-10-25T08:01:27.458Z,17.33
2022-10-25T08:03:55.250Z,10.55
2022-10-25T08:06:24.921Z,8.00
2022-10-25T08:08:52.031Z,11.95
2022-10-25T08:11:19.366Z,13.13
2022-10-25T08:13:49.651Z,9.40
2022-10-25T08:16:16.468Z,11.38
2022-10-25T08:18:44.047Z,8.43
2022-10-25T08:21:10.821Z,9.63
2022-10-25T08:23:37.557Z,8.75
2022-10-25T08:26:04.303Z,14.07
2022-10-25T08:28:31.755Z,9.07
2022-10-25T08:31:00.702Z,8.20
2022-10-25T08:33:28.224Z,12.23
2022-10-25T08:35:55.005Z,9.75
2022-10-25T08:38:21.858Z,9.77
2022-10-25T08:41:06.850Z,7.32
2022-10-25T08:44:01.255Z,7.75
2022-10-25T08:46:48.266Z,8.02
2022-10-25T08:49:22.253Z,9.57
2022-10-25T08:51:50.694Z,13.27
2022-10-25T08:54:22.486Z,10.00
2022-10-25T08:57:10.639Z,9.50
2022-10-25T08:59:45.848Z,6.28
2022-10-25T09:02:34.277Z,13.32
2022-10-25T09:05:01.313Z,10.90
2022-10-25T09:08:07.446Z,5.00
2022-10-25T09:11:21.079Z,7.90
2022-10-25T09:14:33.803Z,7.45
2022-10-25T09:17:48.262Z,10.52
2022-10-25T09:20:31.831Z,10.30
2022-10-25T09:23:11.532Z,7.53
2022-10-25T09:25:54.131Z,6.68
2022-10-25T09:28:36.558Z,14.05
2022-10-25T09:31:04.847Z,7.23
2022-10-25T09:33:33.264Z,7.80
2022-10-25T09:36:00.339Z,6.85
2022-10-25T09:38:45.376Z,8.00
2022-10-25T09:41:21.196Z,10.07
2022-10-25T09:44:46.103Z,5.13
2022-10-25T09:47:40.794Z,7.85
2022-10-25T09:50:22.050Z,7.85
2022-10-25T09:53:08.815Z,10.15
2022-10-25T09:55:57.776Z,8.15
2022-10-25T09:58:26.469Z,7.70
2022-10-25T10:00:57.199Z,3.95
2022-10-25T10:03:30.822Z,5.93
2022-10-25T10:06:03.085Z,5.57
2022-10-25T10:08:35.219Z,6.25
2022-10-25T10:11:04.789Z,10.80
2022-10-25T10:13:41.156Z,7.38
2022-10-25T10:16:35.485Z,11.02
2022-10-25T10:19:20.989Z,9.10
2022-10-25T10:21:52.627Z,6.80
2022-10-25T10:24:42.629Z,6.25
2022-10-25T10:27:13.874Z,9.23
2022-10-25T10:30:00.536Z,10.68
2022-10-25T10:32:33.523Z,10.32
2022-10-25T10:37:30.361Z,10.80
2022-10-25T10:40:01.680Z,5.68
2022-10-25T10:42:37.211Z,11.88
2022-10-25T10:45:09.901Z,8.45
2022-10-25T10:47:57.989Z,6.80
2022-10-25T10:50:32.486Z,6.57
2022-10-25T10:53:21.547Z,6.00
2022-10-25T10:55:52.665Z,7.57
2022-10-25T10:58:28.258Z,8.75
2022-10-25T11:01:01.326Z,5.95
2022-10-25T11:03:59.190Z,8.00
2022-10-25T11:06:32.171Z,8.48
2022-10-25T11:09:17.805Z,5.28
2022-10-25T11:12:03.665Z,6.85
2022-10-25T11:14:30.430Z,11.07
2022-10-25T11:17:27.780Z,7.40
2022-10-25T11:19:57.605Z,10.82
2022-10-25T11:22:48.956Z,6.32
2022-10-25T11:25:34.170Z,10.23
2022-10-25T11:28:22.559Z,7.75
2022-10-25T11:31:17.586Z,7.15
2022-10-25T11:33:45.797Z,5.38
2022-10-25T11:36:32.195Z,4.45
2022-10-25T11:39:24.546Z,10.93
2022-10-25T11:42:08.679Z,4.53
2022-10-25T11:44:51.109Z,8.73
2022-10-25T11:47:54.692Z,3.30
2022-10-25T11:51:07.510Z,3.17
2022-10-25T11:53:43.498Z,7.03
2022-10-25T11:56:46.595Z,7.65
2022-10-25T12:00:02.307Z,4.43
2022-10-25T12:02:46.717Z,3.70
2022-10-25T12:05:35.762Z,6.60
2022-10-25T12:08:58.449Z,4.70
2022-10-25T12:11:31.128Z,5.13
2022-10-25T12:14:06.236Z,4.22
2022-10-25T12:16:36.486Z,4.68
2022-10-25T12:19:19.390Z,7.30
2022-10-25T12:22:01.846Z,8.32
2022-10-25T12:24:43.257Z,12.82
2022-10-25T12:27:11.711Z,8.77
2022-10-25T12:29:45.166Z,8.82
2022-10-25T12:32:22.173Z,6.45
2022-10-25T12:34:53.643Z,7.25
2022-10-25T12:37:47.470Z,7.63
2022-10-25T12:40:21.266Z,11.95
2022-10-25T12:42:55.211Z,5.65
2022-10-25T12:45:39.053Z,5.55
2022-10-25T12:48:40.111Z,3.92
2022-10-25T12:51:40.686Z,4.85
2022-10-25T12:54:39.097Z,3.53
2022-10-25T12:57:45.935Z,9.30
2022-10-25T13:00:21.840Z,8.23
2022-10-25T13:04:00.903Z,5.13
2022-10-25T13:06:38.265Z,5.50
2022-10-25T13:09:09.735Z,6.90
2022-10-25T13:12:05.244Z,10.00
2022-10-25T13:14:34.931Z,7.90
2022-10-25T13:17:16.975Z,10.70
2022-10-25T13:20:00.276Z,5.03
2022-10-25T13:25:08.608Z,4.90
2022-10-25T13:27:36.925Z,7.63
2022-10-25T13:30:06.673Z,7.43
2022-10-25T13:32:41.985Z,5.35
2022-10-25T13:35:20.948Z,6.03
2022-10-25T13:38:20.068Z,4.25
2022-10-25T13:41:18.787Z,8.07
2022-10-25T13:44:02.867Z,8.85
2022-10-25T13:46:37.353Z,5.85
2022-10-25T13:49:33.907Z,9.38
2022-10-25T13:52:05.432Z,8.77
2022-10-25T13:54:48.585Z,6.50
2022-10-25T13:57:50.874Z,9.85
2022-10-25T14:00:41.241Z,7.22
2022-10-25T14:03:13.039Z,4.47
2022-10-25T14:05:55.174Z,7.60
2022-10-25T14:08:43.903Z,8.13
2022-10-25T14:11:20.782Z,6.97
2022-10-25T14:14:05.167Z,6.68
2022-10-25T14:17:00.029Z,4.55
2022-10-25T14:19:41.231Z,8.27
2022-10-25T14:22:34.397Z,4.53
2022-10-25T14:25:23.868Z,3.95
2022-10-25T14:28:25.417Z,4.13
2022-10-25T14:31:20.051Z,7.72
2022-10-25T14:33:55.239Z,6.22
2022-10-25T14:36:30.867Z,8.60
2022-10-25T14:39:17.421Z,10.82
2022-10-25T14:41:57.516Z,10.13
2022-10-25T14:44:44.650Z,7.28
2022-10-25T14:47:32.979Z,5.53
2022-10-25T14:50:00.355Z,6.03
2022-10-25T14:52:30.390Z,5.38
2022-10-25T14:55:03.438Z,6.50
2022-10-25T15:00:04.521Z,15.77
2022-10-25T15:02:40.246Z,6.38
2022-10-25T15:05:17.219Z,8.05
2022-10-25T15:07:46.897Z,7.85
2022-10-25T15:10:42.517Z,5.80
2022-10-25T15:13:26.489Z,6.00
2022-10-25T15:15:53.502Z,5.90
2022-10-25T15:18:30.901Z,9.32
2022-10-25T15:21:18.430Z,4.93
2022-10-25T15:24:18.055Z,6.00
2022-10-25T15:27:03.530Z,12.73
2022-10-25T15:29:42.635Z,7.80
2022-10-25T15:32:19.479Z,12.77
2022-10-25T15:34:55.878Z,10.45
2022-10-25T15:37:24.884Z,7.60
2022-10-25T15:39:54.153Z,7.00
2022-10-25T15:42:24.202Z,10.43
2022-10-25T15:44:50.986Z,10.55
2022-10-25T15:47:31.439Z,49.08
2022-10-25T15:49:59.014Z,35.53
2022-10-25T15:52:26.556Z,23.83
2022-10-25T15:54:53.830Z,17.25
2022-10-25T15:57:20.803Z,17.15
2022-10-25T15:59:47.606Z,13.77
2022-10-25T16:02:28.547Z,13.20
2022-10-25T16:04:55.563Z,11.32
2022-10-25T16:07:23.114Z,7.63
2022-10-25T16:09:49.850Z,12.95
2022-10-25T16:12:27.377Z,9.32
2022-10-25T16:14:54.149Z,11.27
2022-10-25T16:17:20.927Z,15.32
2022-10-25T16:19:47.747Z,9.80
2022-10-25T16:22:14.571Z,13.70
2022-10-25T16:24:41.474Z,9.75
2022-10-25T16:27:12.423Z,9.57
2022-10-25T16:29:39.170Z,11.43
2022-10-25T16:32:06.246Z,18.58
2022-10-25T16:34:33.072Z,11.02
2022-10-25T16:36:59.869Z,19.23
2022-10-25T16:39:26.697Z,22.05
2022-10-25T16:41:55.400Z,17.88
2022-10-25T16:44:22.119Z,18.23
2022-10-25T16:46:48.892Z,18.23
2022-10-25T16:49:15.935Z,20.10
2022-10-25T16:51:44.107Z,23.63
2022-10-25T16:54:11.858Z,23.80
2022-10-25T16:56:39.526Z,27.33
2022-10-25T16:59:07.671Z,19.02
2022-10-25T17:01:38.062Z,23.90
2022-10-25T17:04:09.613Z,18.15
2022-10-25T17:06:41.147Z,23.77
2022-10-25T17:09:08.752Z,21.33
2022-10-25T17:11:36.266Z,18.27
2022-10-25T17:14:03.691Z,26.23
2022-10-25T17:16:30.522Z,27.85
2022-10-25T17:18:57.368Z,40.35
2022-10-25T17:21:24.141Z,28.15
2022-10-25T17:23:50.904Z,30.42
2022-10-25T17:26:17.815Z,58.05
2022-10-25T17:28:44.906Z,51.05
2022-10-25T17:31:14.026Z,42.65
2022-10-25T17:33:42.375Z,35.67
2022-10-25T17:36:13.548Z,32.42
2022-10-25T17:38:41.682Z,37.10
2022-10-25T17:41:09.614Z,36.67
2022-10-25T17:43:39.038Z,30.58
2022-10-25T17:46:09.563Z,24.00
2022-10-25T17:48:36.752Z,34.13
2022-10-25T17:51:07.024Z,36.88
2022-10-25T17:53:34.266Z,43.28
2022-10-25T17:56:18.288Z,36.45
2022-10-25T17:58:47.418Z,48.58
2022-10-25T18:01:18.875Z,38.65
2022-10-25T18:03:45.949Z,41.50
2022-10-25T18:06:16.302Z,32.28
2022-10-25T18:08:43.150Z,24.20
2022-10-25T18:11:22.176Z,22.92
2022-10-25T18:14:09.343Z,24.45
2022-10-25T18:16:36.457Z,22.30
2022-10-25T18:19:05.392Z,27.50
2022-10-25T18:21:32.803Z,22.83
2022-10-25T18:24:03.263Z,27.02
2022-10-25T18:26:30.537Z,25.73
2022-10-25T18:28:58.631Z,35.45
2022-10-25T18:31:27.086Z,24.17
2022-10-25T18:34:03.909Z,24.80
2022-10-25T18:36:31.950Z,20.38
2022-10-25T18:38:59.370Z,116.93
2022-10-25T18:41:30.963Z,121.68
2022-10-25T18:43:58.456Z,108.70
2022-10-25T18:46:29.322Z,33.22
2022-10-25T18:48:56.524Z,59.88
2022-10-25T18:51:26.818Z,19.65
2022-10-25T18:54:02.236Z,13.65
2022-10-25T18:56:30.565Z,16.90
2022-10-25T18:58:58.906Z,19.23
2022-10-25T19:01:32.512Z,24.10
2022-10-25T19:04:02.021Z,23.40
2022-10-25T19:06:29.550Z,20.98
2022-10-25T19:08:56.650Z,15.15
2022-10-25T19:11:23.727Z,15.70
2022-10-25T19:13:55.460Z,17.35
2022-10-25T19:16:23.951Z,16.63
2022-10-25T19:18:50.826Z,16.67
2022-10-25T19:21:18.799Z,10.48
2022-10-25T19:23:46.975Z,16.38
2022-10-25T19:26:19.725Z,13.23
2022-10-25T19:28:48.123Z,24.98
2022-10-25T19:31:17.326Z,14.65
2022-10-25T19:33:48.969Z,23.77
2022-10-25T19:36:17.324Z,14.38
2022-10-25T19:38:50.455Z,14.80
2022-10-25T19:43:47.356Z,18.15
2022-10-25T19:46:15.377Z,14.40
2022-10-25T19:48:42.677Z,19.65
2022-10-25T19:51:19.093Z,23.98
2022-10-25T19:53:46.869Z,25.98
2022-10-25T19:56:17.860Z,23.05
2022-10-25T19:58:45.130Z,26.98
2022-10-25T20:01:11.974Z,9.95
2022-10-25T20:03:40.758Z,11.48
2022-10-25T20:06:12.290Z,10.80
2022-10-25T20:08:40.796Z,10.02
2022-10-25T20:11:10.174Z,6.03
2022-10-25T20:13:37.053Z,6.13
2022-10-25T20:16:04.886Z,11.77
2022-10-25T20:18:38.662Z,5.82
2022-10-25T20:21:21.496Z,7.60
2022-10-25T20:23:57.346Z,5.00
2022-10-25T20:26:27.532Z,3.45
2022-10-25T20:29:00.523Z,4.13
2022-10-25T20:31:30.950Z,4.90
2022-10-25T20:33:58.231Z,4.20
2022-10-25T20:36:25.878Z,5.22
2022-10-25T20:38:53.180Z,8.65
2022-10-25T20:41:27.472Z,8.57
2022-10-25T20:44:00.071Z,8.18
2022-10-25T20:46:28.283Z,5.57
2022-10-25T20:48:55.358Z,12.20
2022-10-25T20:51:22.189Z,7.78
2022-10-25T20:53:49.034Z,14.25
2022-10-25T20:56:17.906Z,10.98
2022-10-25T20:58:45.126Z,6.55
2022-10-25T21:01:12.489Z,9.45
2022-10-25T21:03:40.327Z,15.32
2022-10-25T21:06:10.438Z,9.15
2022-10-25T21:08:37.932Z,15.20
2022-10-25T21:11:09.249Z,24.33
2022-10-25T21:13:37.369Z,13.40
2022-10-25T21:16:13.565Z,10.18
2022-10-25T21:18:42.205Z,12.85
2022-10-25T21:21:19.946Z,18.08
2022-10-25T21:23:48.003Z,19.27
2022-10-25T21:26:15.670Z,9.57
2022-10-25T21:28:42.857Z,10.07
2022-10-25T21:31:14.591Z,7.90
2022-10-25T21:33:51.112Z,5.97
2022-10-25T21:36:20.113Z,4.15
2022-10-25T21:38:47.188Z,8.60
2022-10-25T21:41:20.741Z,7.53
2022-10-25T21:43:49.593Z,10.70
2022-10-25T21:46:19.616Z,9.75
2022-10-25T21:48:47.979Z,12.40
2022-10-25T21:51:15.911Z,8.20
2022-10-25T21:53:43.428Z,10.50
2022-10-25T21:56:19.699Z,12.63
2022-10-25T21:58:49.771Z,15.63
2022-10-25T22:01:22.399Z,13.60
2022-10-25T22:03:49.427Z,18.83
2022-10-25T22:06:19.770Z,14.43
2022-10-25T22:08:48.284Z,17.52
2022-10-25T22:11:18.835Z,10.18
2022-10-25T22:13:47.908Z,18.73
2022-10-25T22:16:17.953Z,17.20
2022-10-25T22:18:54.306Z,28.65
2022-10-25T22:21:21.938Z,20.27
2022-10-25T22:23:48.920Z,47.22
2022-10-25T22:26:18.805Z,21.20
2022-10-25T22:28:46.655Z,35.40
2022-10-25T22:31:16.730Z,28.75
2022-10-25T22:33:44.944Z,21.85
2022-10-25T22:36:18.169Z,33.28
2022-10-25T22:38:46.022Z,13.48
2022-10-25T22:41:25.004Z,36.80
2022-10-25T22:43:52.044Z,22.05
2022-10-25T22:46:31.183Z,29.40
2022-10-25T22:49:00.011Z,30.35
2022-10-25T22:51:28.382Z,21.80
2022-10-25T22:53:55.534Z,24.27
2022-10-25T22:56:25.590Z,11.88
2022-10-25T22:58:56.190Z,28.05
2022-10-25T23:01:30.267Z,17.73
2022-10-25T23:03:59.542Z,27.00
2022-10-25T23:06:30.384Z,27.13
2022-10-25T23:09:00.494Z,32.60
2022-10-25T23:11:31.094Z,42.33
2022-10-25T23:13:58.692Z,25.33
2022-10-25T23:16:26.520Z,18.45
2022-10-25T23:18:53.846Z,36.03
2022-10-25T23:21:26.775Z,37.35
2022-10-25T23:23:54.913Z,26.67
2022-10-25T23:26:33.122Z,32.28
2022-10-25T23:29:00.740Z,38.75
2022-10-25T23:31:29.845Z,23.73
2022-10-25T23:33:59.695Z,23.35
2022-10-25T23:36:30.510Z,30.85
2022-10-25T23:38:58.396Z,11.73
2022-10-25T23:41:25.167Z,28.77
2022-10-25T23:43:52.119Z,21.67
2022-10-25T23:46:19.447Z,27.08
2022-10-25T23:48:46.668Z,27.73
2022-10-25T23:51:17.230Z,29.95
2022-10-25T23:53:44.082Z,20.52
2022-10-25T23:56:13.541Z,13.80
2022-10-25T23:58:40.870Z,14.90
